Aérodrome :
LOGIN :

S'inscrire | Disclaimer

   EN    FR    IT 

 










Légende :    VFR   VFR Marginal   IFR   IFR Intensif   IFR Très Intensif
Visi : 
Plafond : 
>= 8 km
>= 3000ft
5 à 8 km
1000 à 3000 ft
1500m à 5 km
500 à 1000 ft
800 à 1500m
200 à 500 ft
< 800m
< 200 ft
Symboles :   Orages  Brouillard  Fortes neiges  Fortes précipitations  Vent > 20 kt
SIGMETs :   Divers  Orages  Givrage  Turbulence  Onde Orograph.  Cendres Volcan.






- Altitude de l'aérodrome : 272 ft
- Code IATA : MXN


LFRU - Morlaix-Ploujean

DERNIER METAR :
  • 281000Z AUTO 29008KT 9999 SCT026/// BKN056/// BKN090/// ///CB 08/06 Q1012

METARs EXPIRÉS :
  • 280930Z AUTO 23007KT 9999 FEW031/// SCT041/// ///TCU 09/07 Q1011
  • 280900Z AUTO 24006KT 9999 SCT028 SCT200 08/06 Q1011
  • 280830Z AUTO 24009KT 9999 FEW030 BKN210 08/06 Q1010
  • 280800Z AUTO 25008KT 9999 FEW031/// BKN041/// BKN050/// ///CB 08/06 Q1010

TAF N/A



MET'MAP, la Météo Aéronautique d'un coup d'oeil ! - Copyright ORBIFLY Décembre 2007 - Disclaimer

ORBIFLY MET'MAP TEAM :

Programmation & Développement : Alexandra Zaïnal
Sur une idée originale de : Baudouin d'Aumeries
Soutien technique & logistique : Manuel Goepfert
Assistance : Marc-Olivier Méhu




SOURCES & CREDITS :

   NOAA